createdAt,value
2018-04-16T00:00:17.700Z,99.90
2018-04-16T00:02:45.605Z,99.90
2018-04-16T00:05:13.218Z,99.90
2018-04-16T00:07:40.915Z,99.90
2018-04-16T00:10:08.596Z,99.90
2018-04-16T00:12:36.219Z,99.90
2018-04-16T00:15:03.874Z,99.90
2018-04-16T00:17:31.497Z,99.90
2018-04-16T00:19:59.906Z,99.90
2018-04-16T00:22:27.557Z,99.90
2018-04-16T00:24:55.345Z,99.90
2018-04-16T00:27:22.925Z,99.90
2018-04-16T00:29:50.562Z,99.90
2018-04-16T00:32:23.911Z,99.90
2018-04-16T00:34:57.394Z,99.90
2018-04-16T00:37:31.677Z,99.90
2018-04-16T00:40:05.032Z,99.90
2018-04-16T00:56:09.951Z,99.90
2018-04-16T00:58:44.828Z,99.90
2018-04-16T01:01:18.207Z,99.90
2018-04-16T01:03:52.205Z,99.90
2018-04-16T01:06:26.374Z,99.90
2018-04-16T01:08:59.702Z,99.90
2018-04-16T01:11:33.678Z,99.90
2018-04-16T01:14:07.054Z,99.90
2018-04-16T01:16:40.270Z,99.90
2018-04-16T01:19:13.630Z,99.90
2018-04-16T01:21:46.869Z,99.90
2018-04-16T01:24:20.279Z,99.90
2018-04-16T01:26:53.516Z,99.90
2018-04-16T01:29:26.865Z,99.90
2018-04-16T01:32:00.059Z,99.90
2018-04-16T01:34:33.386Z,99.90
2018-04-16T01:40:08.931Z,99.90
2018-04-16T01:45:47.753Z,99.90
2018-04-16T01:48:21.095Z,99.90
2018-04-16T01:50:55.187Z,99.90
2018-04-16T01:53:28.541Z,99.90
2018-04-16T01:56:01.734Z,99.90
2018-04-16T01:58:35.136Z,99.90
2018-04-16T02:01:08.456Z,99.90
2018-04-16T02:03:41.949Z,99.90
2018-04-16T02:06:15.324Z,99.90
2018-04-16T02:08:48.498Z,99.90
2018-04-16T02:14:19.908Z,99.90
2018-04-16T02:16:53.524Z,99.90
2018-04-16T02:19:26.850Z,99.90
2018-04-16T02:22:00.772Z,99.90
2018-04-16T02:24:33.961Z,99.90
2018-04-16T02:27:07.338Z,99.90
2018-04-16T02:29:40.501Z,99.90
2018-04-16T02:32:13.627Z,99.90
2018-04-16T02:34:47.799Z,99.90
2018-04-16T02:37:20.968Z,99.90
2018-04-16T02:39:54.289Z,99.90
2018-04-16T02:42:27.424Z,99.90
2018-04-16T02:45:00.769Z,99.90
2018-04-16T02:47:34.062Z,99.90
2018-04-16T02:53:12.290Z,99.90
2018-04-16T02:55:45.955Z,99.90
2018-04-16T02:58:19.129Z,99.90
2018-04-16T03:00:52.497Z,99.90
2018-04-16T03:03:25.772Z,99.90
2018-04-16T03:05:59.159Z,99.90
2018-04-16T03:08:32.439Z,99.90
2018-04-16T03:11:05.747Z,99.90
2018-04-16T03:13:39.661Z,99.90
2018-04-16T03:16:13.021Z,99.90
2018-04-16T03:18:46.449Z,99.90
2018-04-16T03:21:20.813Z,99.90
2018-04-16T03:23:54.746Z,99.90
2018-04-16T03:29:27.959Z,99.90
2018-04-16T03:32:03.495Z,99.90
2018-04-16T03:34:36.773Z,99.90
2018-04-16T03:37:10.782Z,99.90
2018-04-16T03:39:43.967Z,99.90
2018-04-16T03:42:17.324Z,99.90
2018-04-16T03:44:50.782Z,99.90
2018-04-16T03:47:23.896Z,99.90
2018-04-16T03:49:57.256Z,99.90
2018-04-16T03:52:31.404Z,99.90
2018-04-16T03:55:05.515Z,99.90
2018-04-16T03:57:33.169Z,99.90
2018-04-16T04:00:00.821Z,99.90
2018-04-16T04:02:28.504Z,99.90
2018-04-16T04:04:56.168Z,99.90
2018-04-16T04:07:23.780Z,99.90
2018-04-16T04:09:51.437Z,99.90
2018-04-16T04:12:19.067Z,99.90
2018-04-16T04:14:46.766Z,99.90
2018-04-16T04:17:14.432Z,99.90
2018-04-16T04:19:42.063Z,99.90
2018-04-16T04:22:10.441Z,99.90
2018-04-16T04:24:49.880Z,99.90
2018-04-16T04:27:29.217Z,99.90
2018-04-16T04:30:08.700Z,99.90
2018-04-16T04:32:36.311Z,99.90
2018-04-16T04:35:03.914Z,99.90
2018-04-16T04:37:32.517Z,99.90
2018-04-16T04:40:01.266Z,99.90
2018-04-16T04:42:28.967Z,99.90
2018-04-16T04:44:56.604Z,99.90
2018-04-16T04:47:24.231Z,99.90
2018-04-16T04:49:51.837Z,99.90
2018-04-16T04:52:19.521Z,99.90
2018-04-16T04:54:47.892Z,99.90
2018-04-16T04:57:15.862Z,99.90
2018-04-16T04:59:44.253Z,99.90
2018-04-16T05:02:12.707Z,99.90
2018-04-16T05:04:40.325Z,99.90
2018-04-16T05:07:07.969Z,99.90
2018-04-16T05:09:36.287Z,99.90
2018-04-16T05:12:04.714Z,99.90
2018-04-16T05:14:33.051Z,99.90
2018-04-16T05:17:00.836Z,99.90
2018-04-16T05:19:28.447Z,99.90
2018-04-16T05:21:56.100Z,99.90
2018-04-16T05:24:23.769Z,99.90
2018-04-16T05:26:51.371Z,99.90
2018-04-16T05:29:19.041Z,99.90
2018-04-16T05:31:46.782Z,99.90
2018-04-16T05:34:14.432Z,99.90
2018-04-16T05:36:42.077Z,99.90
2018-04-16T05:39:09.739Z,99.90
2018-04-16T05:41:37.449Z,99.90
2018-04-16T05:44:05.189Z,99.90
2018-04-16T05:46:32.858Z,99.90
2018-04-16T05:49:00.478Z,99.90
2018-04-16T05:51:28.109Z,99.90
2018-04-16T05:53:56.480Z,99.90
2018-04-16T05:56:24.909Z,99.90
2018-04-16T05:58:52.934Z,99.90
2018-04-16T06:01:20.527Z,99.90
2018-04-16T06:03:48.110Z,99.90
2018-04-16T06:06:15.719Z,99.90
2018-04-16T06:08:43.374Z,99.90
2018-04-16T06:11:11.048Z,99.90
2018-04-16T06:13:38.839Z,99.90
2018-04-16T06:16:06.406Z,99.90
2018-04-16T06:18:34.064Z,99.90
2018-04-16T06:21:01.728Z,99.90
2018-04-16T06:23:29.472Z,99.90
2018-04-16T06:25:57.874Z,99.90
2018-04-16T06:28:25.498Z,99.90
2018-04-16T06:30:53.149Z,99.90
2018-04-16T06:33:20.787Z,99.90
2018-04-16T06:35:48.499Z,99.90
2018-04-16T06:38:16.451Z,99.90
2018-04-16T06:40:44.096Z,99.90
2018-04-16T06:43:11.745Z,99.90
2018-04-16T06:45:39.345Z,99.90
2018-04-16T06:48:07.036Z,99.90
2018-04-16T06:50:34.695Z,99.90
2018-04-16T06:53:02.315Z,99.90
2018-04-16T06:55:30.070Z,99.90
2018-04-16T06:57:57.755Z,99.90
2018-04-16T07:00:25.517Z,99.90
2018-04-16T07:02:53.184Z,99.90
2018-04-16T07:05:21.631Z,99.90
2018-04-16T07:07:49.317Z,99.90
2018-04-16T07:10:16.997Z,99.90
2018-04-16T07:12:45.376Z,99.90
2018-04-16T07:15:13.846Z,99.90
2018-04-16T07:17:41.624Z,99.90
2018-04-16T07:20:10.020Z,99.90
2018-04-16T07:22:37.629Z,99.90
2018-04-16T07:25:05.346Z,99.90
2018-04-16T07:27:32.980Z,99.90
2018-04-16T07:30:00.603Z,99.90
2018-04-16T07:32:28.204Z,99.90
2018-04-16T07:34:56.641Z,99.90
2018-04-16T07:37:24.324Z,99.90
2018-04-16T07:39:52.241Z,99.90
2018-04-16T07:42:19.893Z,99.90
2018-04-16T07:44:47.531Z,99.90
2018-04-16T07:47:15.183Z,99.90
2018-04-16T07:49:42.885Z,99.90
2018-04-16T07:52:10.517Z,99.90
2018-04-16T07:54:38.857Z,99.90
2018-04-16T07:57:06.504Z,99.90
2018-04-16T07:59:35.010Z,99.90
2018-04-16T08:02:03.456Z,99.90
2018-04-16T08:04:31.085Z,99.90
2018-04-16T08:06:59.491Z,99.90
2018-04-16T08:09:27.886Z,99.90
2018-04-16T08:11:55.542Z,99.90
2018-04-16T08:14:23.316Z,99.90
2018-04-16T08:16:50.929Z,99.90
2018-04-16T08:19:18.593Z,99.90
2018-04-16T08:21:46.453Z,99.90
2018-04-16T08:24:14.182Z,99.90
2018-04-16T08:26:41.839Z,99.90
2018-04-16T08:29:09.511Z,99.90
2018-04-16T08:31:37.194Z,99.90
2018-04-16T08:34:04.842Z,99.90
2018-04-16T08:36:32.507Z,99.90
2018-04-16T08:39:00.167Z,99.90
2018-04-16T08:41:27.802Z,99.90
2018-04-16T08:43:55.417Z,99.90
2018-04-16T08:46:23.129Z,99.90
2018-04-16T08:48:51.098Z,99.90
2018-04-16T08:51:18.715Z,99.90
2018-04-16T08:53:46.378Z,99.90
2018-04-16T08:56:13.957Z,99.90
2018-04-16T08:58:41.568Z,99.90
2018-04-16T09:01:09.330Z,99.90
2018-04-16T09:03:37.057Z,99.90
2018-04-16T09:06:04.789Z,99.90
2018-04-16T09:08:32.449Z,99.90
2018-04-16T09:11:00.110Z,99.90
2018-04-16T09:13:27.773Z,99.90
2018-04-16T09:15:56.254Z,99.90
2018-04-16T09:18:23.916Z,99.90
2018-04-16T09:20:52.355Z,99.90
2018-04-16T09:23:19.965Z,99.90
2018-04-16T09:25:47.596Z,99.90
2018-04-16T09:28:15.291Z,99.90
2018-04-16T09:30:43.827Z,99.90
2018-04-16T09:33:11.450Z,99.90
2018-04-16T09:35:39.845Z,99.90
2018-04-16T09:38:08.318Z,99.90
2018-04-16T09:40:36.240Z,99.90
2018-04-16T09:43:03.927Z,99.90
2018-04-16T09:45:31.548Z,99.90
2018-04-16T09:47:59.315Z,99.90
2018-04-16T09:50:27.421Z,99.90
2018-04-16T09:52:55.084Z,99.90
2018-04-16T09:55:22.814Z,99.90
2018-04-16T09:57:50.513Z,99.90
2018-04-16T10:00:18.338Z,99.90
2018-04-16T11:21:48.732Z,99.90
2018-04-16T11:24:16.536Z,99.90
2018-04-16T11:26:44.231Z,99.90
2018-04-16T11:29:11.868Z,99.90
2018-04-16T11:31:39.495Z,99.90
2018-04-16T11:34:07.148Z,99.90
2018-04-16T11:36:34.812Z,99.90
2018-04-16T11:39:02.588Z,99.90
2018-04-16T11:41:30.955Z,99.90
2018-04-16T11:43:58.632Z,99.90
2018-04-16T11:46:26.393Z,99.90
2018-04-16T11:48:54.041Z,99.90
2018-04-16T11:51:21.848Z,99.90
2018-04-16T11:53:49.478Z,99.90
2018-04-16T11:56:17.921Z,99.90
2018-04-16T11:58:45.529Z,99.90
2018-04-16T12:01:13.168Z,99.90
2018-04-16T12:03:40.791Z,99.90
2018-04-16T12:06:08.457Z,99.90
2018-04-16T12:08:36.059Z,99.90
2018-04-16T12:11:03.996Z,99.90
2018-04-16T12:13:31.618Z,99.90
2018-04-16T12:16:00.139Z,99.90
2018-04-16T12:18:27.925Z,99.90
2018-04-16T12:20:55.593Z,99.90
2018-04-16T12:23:23.578Z,99.90
2018-04-16T12:25:51.960Z,99.90
2018-04-16T12:28:20.093Z,99.90
2018-04-16T12:30:47.741Z,99.90
2018-04-16T12:33:15.352Z,99.90
2018-04-16T12:35:42.982Z,99.90
2018-04-16T12:38:10.728Z,99.90
2018-04-16T12:40:38.549Z,99.90
2018-04-16T12:43:08.277Z,99.90
2018-04-16T12:45:37.618Z,99.90
2018-04-16T12:48:05.277Z,99.90
2018-04-16T12:50:33.011Z,99.90
2018-04-16T12:53:01.523Z,99.90
2018-04-16T12:55:29.302Z,99.90
2018-04-16T12:57:56.932Z,99.90
2018-04-16T13:00:24.695Z,99.90
2018-04-16T13:02:52.313Z,99.90
2018-04-16T13:05:19.995Z,99.90
2018-04-16T13:07:48.778Z,99.90
2018-04-16T13:10:16.469Z,99.90
2018-04-16T13:12:44.090Z,99.90
2018-04-16T13:15:11.680Z,99.90
2018-04-16T13:17:40.177Z,99.90
2018-04-16T13:20:07.829Z,99.90
2018-04-16T13:22:35.495Z,99.90
2018-04-16T13:25:03.114Z,99.90
2018-04-16T13:27:30.798Z,99.90
2018-04-16T13:29:59.256Z,99.90
2018-04-16T13:32:26.861Z,99.90
2018-04-16T13:34:54.521Z,99.90
2018-04-16T13:37:22.141Z,99.90
2018-04-16T13:39:49.758Z,99.90
2018-04-16T13:42:17.465Z,99.90
2018-04-16T13:44:45.141Z,99.90
2018-04-16T13:47:12.894Z,99.90
2018-04-16T13:49:40.617Z,99.90
2018-04-16T13:52:08.282Z,99.90
2018-04-16T13:54:35.940Z,99.90
2018-04-16T13:57:03.655Z,99.90
2018-04-16T13:59:31.375Z,99.90
2018-04-16T14:01:58.941Z,99.90
2018-04-16T14:04:26.862Z,99.90
2018-04-16T14:06:55.230Z,99.90
2018-04-16T14:09:22.931Z,99.90
2018-04-16T14:11:50.657Z,99.90
2018-04-16T14:14:19.038Z,99.90
2018-04-16T14:16:46.671Z,99.90
2018-04-16T14:19:14.281Z,99.90
2018-04-16T14:21:41.899Z,99.90
2018-04-16T14:24:09.556Z,99.90
2018-04-16T14:26:38.282Z,99.90
2018-04-16T14:29:06.025Z,99.90
2018-04-16T14:31:33.911Z,99.90
2018-04-16T14:34:01.603Z,99.90
2018-04-16T14:36:29.275Z,99.90
2018-04-16T14:38:56.978Z,99.90
2018-04-16T14:41:24.667Z,99.90
2018-04-16T14:43:54.162Z,99.90
2018-04-16T14:46:21.918Z,99.90
2018-04-16T14:48:52.654Z,99.90
2018-04-16T14:54:06.605Z,99.90
2018-04-16T14:59:49.709Z,99.90
2018-04-16T15:02:17.612Z,99.90
2018-04-16T15:04:45.247Z,99.90
2018-04-16T15:07:12.926Z,99.90
2018-04-16T15:09:40.854Z,99.90
2018-04-16T15:12:14.276Z,99.90
2018-04-16T15:17:23.192Z,99.90
2018-04-16T15:22:37.974Z,99.90
2018-04-16T15:25:20.913Z,99.90
2018-04-16T15:27:53.257Z,99.90
2018-04-16T15:30:20.932Z,99.90
2018-04-16T15:32:48.666Z,99.90
2018-04-16T15:35:16.264Z,99.90
2018-04-16T15:37:43.944Z,99.90
2018-04-16T15:40:11.682Z,99.90
2018-04-16T15:42:39.288Z,99.90
2018-04-16T15:45:07.047Z,99.90
2018-04-16T15:47:34.813Z,99.90
2018-04-16T15:50:02.466Z,99.90
2018-04-16T15:52:30.321Z,99.90
2018-04-16T15:54:58.083Z,99.90
2018-04-16T15:57:25.835Z,99.90
2018-04-16T15:59:53.610Z,99.90
2018-04-16T16:02:21.500Z,99.90
2018-04-16T16:04:49.099Z,99.90
2018-04-16T16:07:17.574Z,99.90
2018-04-16T16:09:45.270Z,99.90
2018-04-16T16:12:13.004Z,99.90
2018-04-16T16:14:40.822Z,99.90
2018-04-16T16:17:08.468Z,99.90
2018-04-16T16:19:36.100Z,99.90
2018-04-16T16:22:04.487Z,99.90
2018-04-16T16:24:33.130Z,99.90
2018-04-16T16:27:00.892Z,99.90
2018-04-16T16:29:28.801Z,99.90
2018-04-16T16:31:56.574Z,99.90
2018-04-16T16:34:25.041Z,99.90
2018-04-16T16:36:52.661Z,99.90
2018-04-16T16:39:20.246Z,99.90
2018-04-16T16:41:48.934Z,99.90
2018-04-16T16:44:16.600Z,99.90
2018-04-16T16:46:44.359Z,99.90
2018-04-16T16:49:12.975Z,99.90
2018-04-16T16:51:40.706Z,99.90
2018-04-16T16:54:08.524Z,99.90
2018-04-16T16:56:36.276Z,99.90
2018-04-16T16:59:03.991Z,99.90
2018-04-16T17:01:31.662Z,99.90
2018-04-16T17:03:59.388Z,99.90
2018-04-16T17:06:27.082Z,99.90
2018-04-16T17:08:54.746Z,99.90
2018-04-16T17:11:23.174Z,99.90
2018-04-16T17:13:51.553Z,99.30
2018-04-16T17:16:20.357Z,99.10
2018-04-16T17:18:48.239Z,99.40
2018-04-16T17:21:15.860Z,99.60
2018-04-16T17:23:43.794Z,99.50
2018-04-16T17:26:11.537Z,99.90
2018-04-16T17:28:39.250Z,99.90
2018-04-16T17:31:07.689Z,99.10
2018-04-16T17:36:09.162Z,98.70
2018-04-16T17:38:36.883Z,98.50
2018-04-16T17:41:04.659Z,98.30
2018-04-16T17:43:32.297Z,98.30
2018-04-16T17:46:00.635Z,98.60
2018-04-16T17:48:28.276Z,98.60
2018-04-16T17:50:55.880Z,98.50
2018-04-16T17:53:23.557Z,98.30
2018-04-16T17:55:51.251Z,98.80
2018-04-16T17:58:18.891Z,99.10
2018-04-16T18:00:46.641Z,99.20
2018-04-16T18:03:14.252Z,99.60
2018-04-16T18:05:41.949Z,99.90
2018-04-16T18:08:09.579Z,99.90
2018-04-16T18:10:37.313Z,99.90
2018-04-16T18:13:05.907Z,99.90
2018-04-16T18:15:33.636Z,99.90
2018-04-16T18:18:02.124Z,99.90
2018-04-16T18:20:29.786Z,99.90
2018-04-16T18:22:57.974Z,99.90
2018-04-16T18:25:26.017Z,99.90
2018-04-16T18:27:57.493Z,99.90
2018-04-16T18:30:25.168Z,99.90
2018-04-16T18:32:53.467Z,99.90
2018-04-16T18:35:25.959Z,99.90
2018-04-16T18:37:53.613Z,99.90
2018-04-16T18:40:25.093Z,99.90
2018-04-16T18:42:52.783Z,99.90
2018-04-16T18:45:20.476Z,99.90
2018-04-16T18:47:48.178Z,99.90
2018-04-16T18:50:15.835Z,99.90
2018-04-16T18:52:43.625Z,99.90
2018-04-16T18:55:11.395Z,99.90
2018-04-16T18:57:39.031Z,99.90
2018-04-16T19:00:06.658Z,99.90
2018-04-16T19:02:40.697Z,99.90
2018-04-16T19:05:13.597Z,99.90
2018-04-16T19:07:41.270Z,99.90
2018-04-16T19:10:09.141Z,99.90
2018-04-16T19:12:37.652Z,99.90
2018-04-16T19:15:05.339Z,99.90
2018-04-16T19:17:32.962Z,99.90
2018-04-16T19:20:01.317Z,99.90
2018-04-16T19:22:29.276Z,99.90
2018-04-16T19:24:58.948Z,99.90
2018-04-16T19:27:33.243Z,99.90
2018-04-16T19:30:00.859Z,99.90
2018-04-16T19:32:35.364Z,99.90
2018-04-16T19:35:07.783Z,99.90
2018-04-16T19:37:35.600Z,99.90
2018-04-16T19:40:03.224Z,99.90
2018-04-16T19:42:36.485Z,99.90
2018-04-16T19:45:04.094Z,99.90
2018-04-16T19:47:31.687Z,99.90
2018-04-16T19:50:05.157Z,99.90
2018-04-16T19:52:32.839Z,99.90
2018-04-16T19:55:00.645Z,99.90
2018-04-16T19:57:34.767Z,99.90
2018-04-16T20:00:03.235Z,99.90
2018-04-16T20:02:37.377Z,99.90
2018-04-16T20:05:06.228Z,99.90
2018-04-16T20:07:33.917Z,99.90
2018-04-16T20:10:01.586Z,99.90
2018-04-16T20:12:30.130Z,99.90
2018-04-16T20:14:59.639Z,99.90
2018-04-16T20:17:29.075Z,99.90
2018-04-16T20:19:56.739Z,99.90
2018-04-16T20:22:24.539Z,99.90
2018-04-16T20:24:52.250Z,99.90
2018-04-16T20:27:23.000Z,99.90
2018-04-16T20:29:50.668Z,99.90
2018-04-16T20:32:18.285Z,99.90
2018-04-16T20:34:45.917Z,99.90
2018-04-16T20:37:13.782Z,99.90
2018-04-16T20:39:41.916Z,99.90
2018-04-16T20:42:09.650Z,99.90
2018-04-16T20:44:37.320Z,99.90
2018-04-16T20:47:05.099Z,99.90
2018-04-16T20:49:32.805Z,99.90
2018-04-16T20:52:00.480Z,99.90
2018-04-16T20:54:28.122Z,99.90
2018-04-16T20:57:02.013Z,99.90
2018-04-16T20:59:29.689Z,99.90
2018-04-16T21:01:57.350Z,99.90
2018-04-16T21:04:25.318Z,99.90
2018-04-16T21:06:53.011Z,99.90
2018-04-16T21:09:20.953Z,99.90
2018-04-16T21:11:48.677Z,99.90
2018-04-16T21:14:16.764Z,99.90
2018-04-16T21:16:44.382Z,99.90
2018-04-16T21:19:12.060Z,99.90
2018-04-16T21:21:40.169Z,99.90
2018-04-16T21:24:07.890Z,99.90
2018-04-16T21:26:35.678Z,99.90
2018-04-16T21:29:03.339Z,99.90
2018-04-16T21:31:30.955Z,99.90
2018-04-16T21:33:58.538Z,99.90
2018-04-16T21:36:26.111Z,99.90
2018-04-16T21:38:53.722Z,99.90
2018-04-16T21:41:21.341Z,99.90
2018-04-16T21:43:49.045Z,99.90
2018-04-16T21:46:16.834Z,99.90
2018-04-16T21:48:44.809Z,99.90
2018-04-16T21:51:12.427Z,99.90
2018-04-16T21:53:40.062Z,99.90
2018-04-16T21:56:07.762Z,99.90
2018-04-16T21:58:35.433Z,99.90
2018-04-16T22:01:03.219Z,99.90
2018-04-16T22:03:30.886Z,99.90
2018-04-16T22:05:58.947Z,99.90
2018-04-16T22:08:26.590Z,99.90
2018-04-16T22:10:54.198Z,99.90
2018-04-16T22:13:21.873Z,99.90
2018-04-16T22:15:49.584Z,99.90
2018-04-16T22:18:18.043Z,99.90
2018-04-16T22:20:45.888Z,99.90
2018-04-16T22:23:13.529Z,99.90
2018-04-16T22:25:41.462Z,99.90
2018-04-16T22:28:09.055Z,99.90
2018-04-16T22:30:37.516Z,99.90
2018-04-16T22:33:05.172Z,99.90
2018-04-16T22:35:32.813Z,99.90
2018-04-16T22:38:00.579Z,99.90
2018-04-16T22:40:29.178Z,99.90
2018-04-16T22:42:56.852Z,99.90
2018-04-16T22:45:24.458Z,99.90
2018-04-16T22:47:52.112Z,99.90
2018-04-16T22:50:19.764Z,99.90
2018-04-16T22:52:47.404Z,99.90
2018-04-16T22:55:15.044Z,99.90
2018-04-16T22:57:42.634Z,99.90
2018-04-16T23:00:11.125Z,99.90
2018-04-16T23:02:38.791Z,99.90
2018-04-16T23:05:07.261Z,99.90
2018-04-16T23:07:34.895Z,99.90
2018-04-16T23:10:03.009Z,99.90
2018-04-16T23:12:30.597Z,99.90
2018-04-16T23:14:59.072Z,99.90
2018-04-16T23:17:26.700Z,99.90
2018-04-16T23:19:54.336Z,99.90
2018-04-16T23:22:22.610Z,99.90
2018-04-16T23:24:50.235Z,99.90
2018-04-16T23:27:17.944Z,99.90
2018-04-16T23:29:45.631Z,99.90
2018-04-16T23:32:13.235Z,99.90
2018-04-16T23:34:41.648Z,99.90
2018-04-16T23:37:09.323Z,99.90
2018-04-16T23:39:36.957Z,99.90
2018-04-16T23:42:04.625Z,99.90
2018-04-16T23:44:32.232Z,99.90
2018-04-16T23:46:59.888Z,99.90
2018-04-16T23:49:27.519Z,99.90
2018-04-16T23:51:55.173Z,99.90
2018-04-16T23:54:22.765Z,99.90
2018-04-16T23:56:50.424Z,99.90
2018-04-16T23:59:18.041Z,99.90
